createdAt,value
2019-03-28T00:00:52.102Z,1027.68
2019-03-28T00:01:52.089Z,1027.69
2019-03-28T00:02:52.082Z,1027.70
2019-03-28T00:03:52.287Z,1027.70
2019-03-28T00:04:52.053Z,1027.69
2019-03-28T00:05:52.050Z,1027.70
2019-03-28T00:06:52.040Z,1027.64
2019-03-28T00:07:52.022Z,1027.60
2019-03-28T00:08:52.087Z,1027.62
2019-03-28T00:09:52.007Z,1027.59
2019-03-28T00:10:52.011Z,1027.61
2019-03-28T00:11:52.035Z,1027.61
2019-03-28T00:12:51.984Z,1027.61
2019-03-28T00:13:52.508Z,1027.61
2019-03-28T00:14:51.946Z,1027.59
2019-03-28T00:15:51.950Z,1027.56
2019-03-28T00:16:51.925Z,1027.63
2019-03-28T00:17:51.926Z,1027.54
2019-03-28T00:18:51.922Z,1027.53
2019-03-28T00:19:51.925Z,1027.54
2019-03-28T00:20:51.901Z,1027.53
2019-03-28T00:21:52.033Z,1027.53
2019-03-28T00:22:51.863Z,1027.51
2019-03-28T00:23:51.868Z,1027.56
2019-03-28T00:24:51.861Z,1027.54
2019-03-28T00:25:51.850Z,1027.54
2019-03-28T00:26:51.817Z,1027.55
2019-03-28T00:27:51.802Z,1027.54
2019-03-28T00:28:51.815Z,1027.54
2019-03-28T00:29:51.792Z,1027.55
2019-03-28T00:30:51.795Z,1027.54
2019-03-28T00:31:51.782Z,1027.52
2019-03-28T00:32:52.334Z,1027.52
2019-03-28T00:33:51.776Z,1027.53
2019-03-28T00:34:51.738Z,1027.54
2019-03-28T00:35:51.721Z,1027.49
2019-03-28T00:36:51.722Z,1027.49
2019-03-28T00:37:51.698Z,1027.49
2019-03-28T00:38:51.706Z,1027.48
2019-03-28T00:39:51.694Z,1027.47
2019-03-28T00:40:51.690Z,1027.42
2019-03-28T00:41:51.658Z,1027.44
2019-03-28T00:42:51.667Z,1027.39
2019-03-28T00:43:51.651Z,1027.42
2019-03-28T00:44:51.628Z,1027.37
2019-03-28T00:45:51.614Z,1027.35
2019-03-28T00:46:51.605Z,1027.31
2019-03-28T00:47:51.619Z,1027.34
2019-03-28T00:48:51.762Z,1027.32
2019-03-28T00:49:51.568Z,1027.33
2019-03-28T00:50:51.569Z,1027.31
2019-03-28T00:51:51.546Z,1027.29
2019-03-28T00:52:51.536Z,1027.27
2019-03-28T00:53:51.559Z,1027.24
2019-03-28T00:54:51.534Z,1027.26
2019-03-28T00:55:51.497Z,1027.24
2019-03-28T00:56:51.494Z,1027.24
2019-03-28T00:57:51.478Z,1027.24
2019-03-28T00:58:51.486Z,1027.21
2019-03-28T00:59:51.463Z,1027.18
2019-03-28T01:00:51.523Z,1027.14
2019-03-28T01:01:51.434Z,1027.16
2019-03-28T01:02:51.445Z,1027.16
2019-03-28T01:03:51.434Z,1027.16
2019-03-28T01:04:52.083Z,1027.19
2019-03-28T01:05:51.405Z,1027.22
2019-03-28T01:06:51.392Z,1027.27
2019-03-28T01:07:51.370Z,1027.23
2019-03-28T01:08:51.378Z,1027.25
2019-03-28T01:09:51.379Z,1027.25
2019-03-28T01:10:51.338Z,1027.25
2019-03-28T01:11:51.323Z,1027.29
2019-03-28T01:12:51.328Z,1027.30
2019-03-28T01:13:51.348Z,1027.26
2019-03-28T01:14:51.300Z,1027.28
2019-03-28T01:15:51.282Z,1027.31
2019-03-28T01:16:51.308Z,1027.29
2019-03-28T01:17:51.259Z,1027.31
2019-03-28T01:18:51.266Z,1027.31
2019-03-28T01:19:51.244Z,1027.28
2019-03-28T01:20:51.287Z,1027.34
2019-03-28T01:21:51.215Z,1027.34
2019-03-28T01:22:51.235Z,1027.39
2019-03-28T01:23:51.221Z,1027.34
2019-03-28T01:24:51.186Z,1027.33
2019-03-28T01:25:51.180Z,1027.37
2019-03-28T01:26:57.082Z,1027.35
2019-03-28T01:27:51.152Z,1027.34
2019-03-28T01:28:51.139Z,1027.27
2019-03-28T01:29:51.154Z,1027.28
2019-03-28T01:30:51.118Z,1027.32
2019-03-28T01:31:51.107Z,1027.31
2019-03-28T01:32:51.099Z,1027.31
2019-03-28T01:33:51.095Z,1027.27
2019-03-28T01:34:51.092Z,1027.27
2019-03-28T01:35:51.096Z,1027.28
2019-03-28T01:36:51.070Z,1027.26
2019-03-28T01:37:51.046Z,1027.27
2019-03-28T01:38:51.036Z,1027.23
2019-03-28T01:39:51.021Z,1027.27
2019-03-28T01:40:51.125Z,1027.25
2019-03-28T01:41:50.998Z,1027.24
2019-03-28T01:42:51.010Z,1027.21
2019-03-28T01:43:50.977Z,1027.23
2019-03-28T01:44:50.985Z,1027.20
2019-03-28T01:45:50.953Z,1027.21
2019-03-28T01:46:50.964Z,1027.22
2019-03-28T01:47:50.936Z,1027.19
2019-03-28T01:48:50.968Z,1027.22
2019-03-28T01:49:50.975Z,1027.21
2019-03-28T01:50:50.900Z,1027.23
2019-03-28T01:51:50.891Z,1027.17
2019-03-28T01:52:50.877Z,1027.19
2019-03-28T01:53:50.868Z,1027.11
2019-03-28T01:54:50.877Z,1027.13
2019-03-28T01:55:50.849Z,1027.14
2019-03-28T01:56:50.837Z,1027.13
2019-03-28T01:57:50.827Z,1027.10
2019-03-28T01:58:50.818Z,1027.06
2019-03-28T01:59:50.823Z,1027.12
2019-03-28T02:00:50.810Z,1027.12
2019-03-28T02:01:50.797Z,1027.13
2019-03-28T02:02:50.782Z,1027.13
2019-03-28T02:03:50.759Z,1027.11
2019-03-28T02:04:50.764Z,1027.15
2019-03-28T02:05:50.764Z,1027.13
2019-03-28T02:06:50.741Z,1027.11
2019-03-28T02:07:50.742Z,1027.12
2019-03-28T02:08:50.716Z,1027.14
2019-03-28T02:09:50.721Z,1027.15
2019-03-28T02:10:50.684Z,1027.14
2019-03-28T02:11:50.676Z,1027.18
2019-03-28T02:12:50.708Z,1027.18
2019-03-28T02:13:50.660Z,1027.15
2019-03-28T02:14:50.655Z,1027.17
2019-03-28T02:15:50.642Z,1027.16
2019-03-28T02:16:50.631Z,1027.18
2019-03-28T02:17:50.627Z,1027.21
2019-03-28T02:18:50.601Z,1027.21
2019-03-28T02:19:50.612Z,1027.14
2019-03-28T02:20:50.575Z,1027.19
2019-03-28T02:21:50.585Z,1027.17
2019-03-28T02:22:50.565Z,1027.15
2019-03-28T02:23:50.558Z,1027.16
2019-03-28T02:24:50.544Z,1027.15
2019-03-28T02:25:50.521Z,1027.15
2019-03-28T02:26:50.503Z,1027.16
2019-03-28T02:27:51.201Z,1027.19
2019-03-28T02:28:50.490Z,1027.13
2019-03-28T02:29:50.491Z,1027.14
2019-03-28T02:30:50.802Z,1027.17
2019-03-28T02:31:50.453Z,1027.18
2019-03-28T02:32:50.466Z,1027.17
2019-03-28T02:33:50.443Z,1027.19
2019-03-28T02:34:50.449Z,1027.16
2019-03-28T02:35:50.421Z,1027.19
2019-03-28T02:36:50.407Z,1027.18
2019-03-28T02:37:50.387Z,1027.16
2019-03-28T02:38:50.397Z,1027.14
2019-03-28T02:39:50.843Z,1027.13
2019-03-28T02:40:50.356Z,1027.11
2019-03-28T02:41:50.381Z,1027.12
2019-03-28T02:42:50.334Z,1027.16
2019-03-28T02:43:50.332Z,1027.14
2019-03-28T02:44:50.331Z,1027.12
2019-03-28T02:45:50.332Z,1027.14
2019-03-28T02:46:50.289Z,1027.14
2019-03-28T02:47:50.286Z,1027.14
2019-03-28T02:48:50.267Z,1027.15
2019-03-28T02:49:50.288Z,1027.16
2019-03-28T02:50:50.248Z,1027.16
2019-03-28T02:51:50.249Z,1027.17
2019-03-28T02:52:50.219Z,1027.13
2019-03-28T02:53:50.230Z,1027.23
2019-03-28T02:54:50.214Z,1027.21
2019-03-28T02:55:50.189Z,1027.23
2019-03-28T02:56:50.210Z,1027.23
2019-03-28T02:57:50.182Z,1027.20
2019-03-28T02:58:50.161Z,1027.26
2019-03-28T02:59:50.240Z,1027.24
2019-03-28T03:00:50.145Z,1027.25
2019-03-28T03:01:50.127Z,1027.19
2019-03-28T03:02:50.117Z,1027.22
2019-03-28T03:03:50.142Z,1027.20
2019-03-28T03:04:50.119Z,1027.16
2019-03-28T03:05:50.084Z,1027.17
2019-03-28T03:06:50.104Z,1027.17
2019-03-28T03:07:50.063Z,1027.16
2019-03-28T03:08:50.049Z,1027.19
2019-03-28T03:09:50.104Z,1027.19
2019-03-28T03:10:50.056Z,1027.17
2019-03-28T03:11:50.022Z,1027.16
2019-03-28T03:12:50.124Z,1027.23
2019-03-28T03:13:49.993Z,1027.16
2019-03-28T03:14:49.998Z,1027.19
2019-03-28T03:15:50.019Z,1027.21
2019-03-28T03:16:49.993Z,1027.20
2019-03-28T03:17:49.981Z,1027.24
2019-03-28T03:18:49.950Z,1027.28
2019-03-28T03:19:49.942Z,1027.28
2019-03-28T03:20:49.940Z,1027.30
2019-03-28T03:21:49.918Z,1027.33
2019-03-28T03:22:49.896Z,1027.25
2019-03-28T03:23:49.892Z,1027.29
2019-03-28T03:24:49.888Z,1027.29
2019-03-28T03:25:49.898Z,1027.29
2019-03-28T03:26:49.867Z,1027.32
2019-03-28T03:27:57.597Z,1027.25
2019-03-28T03:28:49.837Z,1027.30
2019-03-28T03:29:49.828Z,1027.32
2019-03-28T03:30:49.827Z,1027.37
2019-03-28T03:31:49.848Z,1027.34
2019-03-28T03:32:49.802Z,1027.36
2019-03-28T03:33:49.787Z,1027.39
2019-03-28T03:34:49.871Z,1027.37
2019-03-28T03:35:49.782Z,1027.32
2019-03-28T03:36:49.762Z,1027.37
2019-03-28T03:37:49.751Z,1027.31
2019-03-28T03:38:49.727Z,1027.27
2019-03-28T03:39:49.729Z,1027.34
2019-03-28T03:40:49.743Z,1027.25
2019-03-28T03:41:49.693Z,1027.29
2019-03-28T03:42:49.693Z,1027.29
2019-03-28T03:43:49.813Z,1027.27
2019-03-28T03:44:49.668Z,1027.26
2019-03-28T03:45:49.661Z,1027.25
2019-03-28T03:46:49.638Z,1027.27
2019-03-28T03:47:49.628Z,1027.28
2019-03-28T03:48:49.628Z,1027.32
2019-03-28T03:49:49.618Z,1027.33
2019-03-28T03:50:49.609Z,1027.34
2019-03-28T03:51:49.581Z,1027.29
2019-03-28T03:52:49.570Z,1027.35
2019-03-28T03:53:49.558Z,1027.33
2019-03-28T03:54:49.570Z,1027.40
2019-03-28T03:55:49.553Z,1027.40
2019-03-28T03:56:49.534Z,1027.36
2019-03-28T03:57:49.516Z,1027.34
2019-03-28T03:58:49.501Z,1027.34
2019-03-28T03:59:49.546Z,1027.36
2019-03-28T04:00:49.524Z,1027.35
2019-03-28T04:01:49.478Z,1027.38
2019-03-28T04:02:49.458Z,1027.32
2019-03-28T04:03:49.450Z,1027.37
2019-03-28T04:04:49.457Z,1027.37
2019-03-28T04:05:49.455Z,1027.39
2019-03-28T04:06:49.439Z,1027.37
2019-03-28T04:07:49.406Z,1027.42
2019-03-28T04:08:49.400Z,1027.39
2019-03-28T04:09:49.387Z,1027.41
2019-03-28T04:10:49.387Z,1027.40
2019-03-28T04:11:49.376Z,1027.43
2019-03-28T04:12:49.391Z,1027.48
2019-03-28T04:13:49.362Z,1027.49
2019-03-28T04:14:49.332Z,1027.51
2019-03-28T04:15:49.338Z,1027.50
2019-03-28T04:16:49.315Z,1027.54
2019-03-28T04:17:49.308Z,1027.56
2019-03-28T04:18:49.294Z,1027.54
2019-03-28T04:19:49.288Z,1027.57
2019-03-28T04:20:49.307Z,1027.55
2019-03-28T04:21:49.282Z,1027.52
2019-03-28T04:22:49.282Z,1027.57
2019-03-28T04:23:49.289Z,1027.60
2019-03-28T04:24:49.420Z,1027.60
2019-03-28T04:25:49.253Z,1027.60
2019-03-28T04:26:49.236Z,1027.65
2019-03-28T04:27:49.217Z,1027.66
2019-03-28T04:28:49.199Z,1027.65
2019-03-28T04:29:49.225Z,1027.66
2019-03-28T04:30:49.222Z,1027.67
2019-03-28T04:31:49.203Z,1027.66
2019-03-28T04:32:49.204Z,1027.63
2019-03-28T04:33:49.156Z,1027.63
2019-03-28T04:34:49.123Z,1027.60
2019-03-28T04:35:49.145Z,1027.63
2019-03-28T04:36:49.130Z,1027.61
2019-03-28T04:37:49.127Z,1027.61
2019-03-28T04:38:49.196Z,1027.60
2019-03-28T04:39:49.082Z,1027.61
2019-03-28T04:40:49.049Z,1027.61
2019-03-28T04:41:49.571Z,1027.60
2019-03-28T04:42:49.071Z,1027.60
2019-03-28T04:43:49.046Z,1027.63
2019-03-28T04:44:49.035Z,1027.64
2019-03-28T04:45:49.027Z,1027.63
2019-03-28T04:46:48.997Z,1027.63
2019-03-28T04:47:49.001Z,1027.64
2019-03-28T04:48:50.731Z,1027.69
2019-03-28T04:49:49.019Z,1027.70
2019-03-28T04:50:48.962Z,1027.78
2019-03-28T04:51:48.971Z,1027.73
2019-03-28T04:52:48.954Z,1027.72
2019-03-28T04:53:48.942Z,1027.72
2019-03-28T04:54:48.919Z,1027.73
2019-03-28T04:55:48.916Z,1027.76
2019-03-28T04:56:48.907Z,1027.74
2019-03-28T04:57:48.867Z,1027.70
2019-03-28T04:58:49.422Z,1027.76
2019-03-28T04:59:48.869Z,1027.78
2019-03-28T05:00:48.859Z,1027.81
2019-03-28T05:02:00.841Z,1027.83
2019-03-28T05:02:48.825Z,1027.84
2019-03-28T05:03:49.378Z,1027.88
2019-03-28T05:04:48.813Z,1027.88
2019-03-28T05:05:48.793Z,1027.87
2019-03-28T05:06:48.829Z,1027.85
2019-03-28T05:07:48.759Z,1027.87
2019-03-28T05:08:48.796Z,1027.83
2019-03-28T05:09:48.788Z,1027.80
2019-03-28T05:10:48.719Z,1027.80
2019-03-28T05:11:48.723Z,1027.81
2019-03-28T05:12:48.733Z,1027.84
2019-03-28T05:13:48.717Z,1027.84
2019-03-28T05:14:48.679Z,1027.84
2019-03-28T05:15:48.672Z,1027.86
2019-03-28T05:16:48.665Z,1027.85
2019-03-28T05:17:48.665Z,1027.86
2019-03-28T05:18:48.683Z,1027.87
2019-03-28T05:19:48.639Z,1027.85
2019-03-28T05:20:48.611Z,1027.86
2019-03-28T05:21:48.657Z,1027.86
2019-03-28T05:22:48.725Z,1027.86
2019-03-28T05:23:48.581Z,1027.86
2019-03-28T05:24:48.612Z,1027.86
2019-03-28T05:25:48.586Z,1027.80
2019-03-28T05:26:48.562Z,1027.84
2019-03-28T05:27:49.183Z,1027.80
2019-03-28T05:28:57.577Z,1027.82
2019-03-28T05:29:48.542Z,1027.87
2019-03-28T05:30:48.534Z,1027.86
2019-03-28T05:31:48.504Z,1027.87
2019-03-28T05:32:48.493Z,1027.86
2019-03-28T05:33:48.513Z,1027.85
2019-03-28T05:34:48.517Z,1027.86
2019-03-28T05:35:48.467Z,1027.84
2019-03-28T05:36:48.470Z,1027.86
2019-03-28T05:37:48.509Z,1027.90
2019-03-28T05:38:48.434Z,1027.89
2019-03-28T05:39:48.414Z,1027.91
2019-03-28T05:40:48.454Z,1027.95
2019-03-28T05:41:48.430Z,1027.93
2019-03-28T05:42:48.380Z,1027.91
2019-03-28T05:43:48.361Z,1027.96
2019-03-28T05:44:48.400Z,1027.94
2019-03-28T05:45:48.355Z,1028.01
2019-03-28T05:46:48.377Z,1027.97
2019-03-28T05:47:48.319Z,1027.98
2019-03-28T05:48:48.339Z,1027.93
2019-03-28T05:49:48.327Z,1027.98
2019-03-28T05:50:48.331Z,1028.01
2019-03-28T05:51:48.290Z,1028.00
2019-03-28T05:52:48.261Z,1028.01
2019-03-28T05:53:48.272Z,1028.04
2019-03-28T05:54:48.266Z,1028.06
2019-03-28T05:55:48.234Z,1028.08
2019-03-28T05:56:48.273Z,1028.11
2019-03-28T05:57:48.258Z,1028.08
2019-03-28T05:58:48.227Z,1028.12
2019-03-28T05:59:48.233Z,1028.10
2019-03-28T06:00:51.262Z,1028.12
2019-03-28T06:01:48.230Z,1028.17
2019-03-28T06:02:48.173Z,1028.15
2019-03-28T06:03:48.161Z,1028.15
2019-03-28T06:04:48.149Z,1028.18
2019-03-28T06:05:48.120Z,1028.19
2019-03-28T06:06:48.147Z,1028.15
2019-03-28T06:07:48.152Z,1028.17
2019-03-28T06:08:48.103Z,1028.13
2019-03-28T06:09:48.122Z,1028.11
2019-03-28T06:10:48.099Z,1028.14
2019-03-28T06:11:48.051Z,1028.14
2019-03-28T06:12:48.043Z,1028.15
2019-03-28T06:13:48.053Z,1028.11
2019-03-28T06:14:48.054Z,1028.18
2019-03-28T06:15:48.093Z,1028.18
2019-03-28T06:16:48.020Z,1028.19
2019-03-28T06:17:48.016Z,1028.20
2019-03-28T06:18:47.992Z,1028.13
2019-03-28T06:19:47.961Z,1028.18
2019-03-28T06:20:47.958Z,1028.12
2019-03-28T06:21:47.977Z,1028.19
2019-03-28T06:22:47.963Z,1028.20
2019-03-28T06:23:47.927Z,1028.23
2019-03-28T06:24:47.945Z,1028.19
2019-03-28T06:25:47.904Z,1028.18
2019-03-28T06:26:50.044Z,1028.21
2019-03-28T06:27:47.924Z,1028.21
2019-03-28T06:28:47.880Z,1028.19
2019-03-28T06:29:47.865Z,1028.20
2019-03-28T06:30:47.977Z,1028.25
2019-03-28T06:31:55.278Z,1028.25
2019-03-28T06:32:48.516Z,1028.31
2019-03-28T06:33:47.841Z,1028.31
2019-03-28T06:34:47.957Z,1028.33
2019-03-28T06:35:48.343Z,1028.35
2019-03-28T06:36:47.955Z,1028.34
2019-03-28T06:37:47.884Z,1028.35
2019-03-28T06:38:47.868Z,1028.30
2019-03-28T06:39:47.767Z,1028.29
2019-03-28T06:40:47.948Z,1028.32
2019-03-28T06:41:48.536Z,1028.31
2019-03-28T06:42:47.753Z,1028.32
2019-03-28T06:43:47.707Z,1028.28
2019-03-28T06:44:47.717Z,1028.27
2019-03-28T06:45:47.717Z,1028.26
2019-03-28T06:46:47.707Z,1028.32
2019-03-28T06:47:47.664Z,1028.27
2019-03-28T06:48:47.648Z,1028.25
2019-03-28T06:49:47.742Z,1028.28
2019-03-28T06:50:47.680Z,1028.22
2019-03-28T06:51:47.632Z,1028.20
2019-03-28T06:52:47.679Z,1028.22
2019-03-28T06:53:47.581Z,1028.22
2019-03-28T06:54:47.582Z,1028.17
2019-03-28T06:55:47.561Z,1028.21
2019-03-28T06:56:47.581Z,1028.19
2019-03-28T06:57:47.555Z,1028.18
2019-03-28T06:58:47.548Z,1028.21
2019-03-28T06:59:47.518Z,1028.19
2019-03-28T07:00:47.512Z,1028.22
2019-03-28T07:01:47.491Z,1028.15
2019-03-28T07:02:48.528Z,1028.18
2019-03-28T07:03:47.620Z,1028.20
2019-03-28T07:04:47.478Z,1028.20
2019-03-28T07:05:48.432Z,1028.25
2019-03-28T07:06:47.450Z,1028.20
2019-03-28T07:07:47.443Z,1028.20
2019-03-28T07:08:47.431Z,1028.24
2019-03-28T07:09:47.404Z,1028.28
2019-03-28T07:10:47.406Z,1028.26
2019-03-28T07:11:47.393Z,1028.23
2019-03-28T07:12:47.406Z,1028.20
2019-03-28T07:13:47.698Z,1028.20
2019-03-28T07:14:47.382Z,1028.22
2019-03-28T07:15:47.346Z,1028.23
2019-03-28T07:16:47.359Z,1028.25
2019-03-28T07:17:47.346Z,1028.26
2019-03-28T07:18:47.312Z,1028.27
2019-03-28T07:19:47.297Z,1028.25
2019-03-28T07:20:47.303Z,1028.25
2019-03-28T07:21:47.276Z,1028.23
2019-03-28T07:22:47.301Z,1028.22
2019-03-28T07:23:47.258Z,1028.18
2019-03-28T07:24:47.251Z,1028.15
2019-03-28T07:25:47.246Z,1028.18
2019-03-28T07:26:47.231Z,1028.16
2019-03-28T07:27:47.238Z,1028.12
2019-03-28T07:28:47.209Z,1028.07
2019-03-28T07:29:51.034Z,1028.07
2019-03-28T07:30:47.244Z,1028.06
2019-03-28T07:31:47.175Z,1028.04
2019-03-28T07:32:48.603Z,1028.04
2019-03-28T07:33:47.152Z,1028.07
2019-03-28T07:34:47.182Z,1028.07
2019-03-28T07:35:47.135Z,1028.05
2019-03-28T07:36:47.124Z,1028.03
2019-03-28T07:37:47.102Z,1028.07
2019-03-28T07:38:47.124Z,1028.07
2019-03-28T07:39:47.077Z,1028.04
2019-03-28T07:40:47.082Z,1028.13
2019-03-28T07:41:47.079Z,1028.17
2019-03-28T07:42:47.054Z,1028.15
2019-03-28T07:43:47.071Z,1028.15
2019-03-28T07:44:47.054Z,1028.18
2019-03-28T07:45:47.024Z,1028.15
2019-03-28T07:46:47.772Z,1028.14
2019-03-28T07:47:46.988Z,1028.11
2019-03-28T07:48:47.010Z,1028.14
2019-03-28T07:49:46.967Z,1028.12
2019-03-28T07:50:48.355Z,1028.13
2019-03-28T07:51:46.955Z,1028.13
2019-03-28T07:52:47.118Z,1028.12
2019-03-28T07:53:47.472Z,1028.10
2019-03-28T07:54:48.879Z,1028.14
2019-03-28T07:55:46.906Z,1028.12
2019-03-28T07:56:46.912Z,1028.09
2019-03-28T07:57:46.883Z,1028.06
2019-03-28T07:58:46.919Z,1028.06
2019-03-28T07:59:46.882Z,1028.04
2019-03-28T08:00:46.877Z,1027.98
2019-03-28T08:01:46.977Z,1028.03
2019-03-28T08:02:46.983Z,1028.04
2019-03-28T08:03:46.939Z,1028.08
2019-03-28T08:04:46.820Z,1028.04
2019-03-28T08:05:46.809Z,1028.06
2019-03-28T08:06:49.926Z,1028.05
2019-03-28T08:07:47.208Z,1028.05
2019-03-28T08:08:46.782Z,1028.07
2019-03-28T08:09:46.757Z,1028.02
2019-03-28T08:10:46.739Z,1028.03
2019-03-28T08:11:48.265Z,1028.10
2019-03-28T08:12:46.721Z,1028.04
2019-03-28T08:13:46.783Z,1028.05
2019-03-28T08:14:46.719Z,1028.08
2019-03-28T08:15:47.564Z,1028.05
2019-03-28T08:16:46.681Z,1028.06
2019-03-28T08:17:46.662Z,1028.08
2019-03-28T08:18:46.671Z,1028.12
2019-03-28T08:19:46.659Z,1028.07
2019-03-28T08:20:46.631Z,1028.10
2019-03-28T08:21:46.622Z,1028.11
2019-03-28T08:22:46.611Z,1028.08
2019-03-28T08:23:46.616Z,1028.10
2019-03-28T08:24:46.636Z,1028.11
2019-03-28T08:25:46.595Z,1028.10
2019-03-28T08:26:46.606Z,1028.13
2019-03-28T08:27:46.574Z,1028.12
2019-03-28T08:28:46.650Z,1028.14
2019-03-28T08:29:46.534Z,1028.14
2019-03-28T08:30:46.548Z,1028.15
2019-03-28T08:31:47.808Z,1028.13
2019-03-28T08:32:46.501Z,1028.15
2019-03-28T08:33:46.516Z,1028.16
2019-03-28T08:34:46.499Z,1028.19
2019-03-28T08:35:46.470Z,1028.17
2019-03-28T08:36:46.463Z,1028.18
2019-03-28T08:37:46.494Z,1028.23
2019-03-28T08:38:46.452Z,1028.20
2019-03-28T08:39:46.470Z,1028.22
2019-03-28T08:40:46.467Z,1028.18
2019-03-28T08:41:48.692Z,1028.17
2019-03-28T08:42:46.399Z,1028.23
2019-03-28T08:43:46.427Z,1028.23
2019-03-28T08:44:46.383Z,1028.19
2019-03-28T08:45:46.368Z,1028.19
2019-03-28T08:46:46.360Z,1028.28
2019-03-28T08:47:46.338Z,1028.26
2019-03-28T08:48:46.351Z,1028.24
2019-03-28T08:49:46.348Z,1028.22
2019-03-28T08:50:46.318Z,1028.24
2019-03-28T08:51:46.350Z,1028.22
2019-03-28T08:52:46.304Z,1028.21
2019-03-28T08:53:46.307Z,1028.26
2019-03-28T08:54:46.294Z,1028.23
2019-03-28T08:55:48.405Z,1028.26
2019-03-28T08:56:46.251Z,1028.23
2019-03-28T08:57:46.229Z,1028.22
2019-03-28T08:58:46.313Z,1028.25
2019-03-28T08:59:46.212Z,1028.29
2019-03-28T09:00:52.140Z,1028.26
2019-03-28T09:01:46.208Z,1028.26
2019-03-28T09:02:46.197Z,1028.23
2019-03-28T09:03:49.592Z,1028.29
2019-03-28T09:04:46.212Z,1028.27
2019-03-28T09:05:46.162Z,1028.27
2019-03-28T09:06:46.158Z,1028.31
2019-03-28T09:07:46.123Z,1028.31
2019-03-28T09:08:46.120Z,1028.29
2019-03-28T09:09:46.123Z,1028.32
2019-03-28T09:10:46.102Z,1028.30
2019-03-28T09:11:46.078Z,1028.33
2019-03-28T09:12:46.103Z,1028.35
2019-03-28T09:13:46.257Z,1028.38
2019-03-28T09:14:46.069Z,1028.37
2019-03-28T09:15:46.047Z,1028.41
2019-03-28T09:16:46.026Z,1028.41
2019-03-28T09:17:46.015Z,1028.44
2019-03-28T09:18:46.300Z,1028.43
2019-03-28T09:19:46.056Z,1028.40
2019-03-28T09:20:46.339Z,1028.40
2019-03-28T09:21:45.972Z,1028.43
2019-03-28T09:22:45.961Z,1028.34
2019-03-28T09:23:45.960Z,1028.42
2019-03-28T09:24:45.978Z,1028.44
2019-03-28T09:25:45.921Z,1028.49
2019-03-28T09:26:45.976Z,1028.44
2019-03-28T09:27:46.917Z,1028.47
2019-03-28T09:28:45.898Z,1028.51
2019-03-28T09:29:45.908Z,1028.48
2019-03-28T09:30:49.200Z,1028.55
2019-03-28T09:31:45.864Z,1028.55
2019-03-28T09:32:45.864Z,1028.56
2019-03-28T09:33:45.856Z,1028.56
2019-03-28T09:34:45.856Z,1028.57
2019-03-28T09:35:45.999Z,1028.57
2019-03-28T09:36:45.851Z,1028.58
2019-03-28T09:37:45.797Z,1028.54
2019-03-28T09:38:45.780Z,1028.58
2019-03-28T09:39:45.819Z,1028.56
2019-03-28T09:40:45.770Z,1028.57
2019-03-28T09:41:45.802Z,1028.60
2019-03-28T09:42:45.744Z,1028.61
2019-03-28T09:43:55.225Z,1028.62
2019-03-28T09:44:45.725Z,1028.65
2019-03-28T09:45:45.728Z,1028.66
2019-03-28T09:46:45.688Z,1028.65
2019-03-28T09:47:45.692Z,1028.65
2019-03-28T09:48:45.684Z,1028.68
2019-03-28T09:49:45.666Z,1028.62
2019-03-28T09:50:45.662Z,1028.63
2019-03-28T09:51:45.629Z,1028.65
2019-03-28T09:52:45.673Z,1028.68
2019-03-28T09:53:45.669Z,1028.64
2019-03-28T09:54:45.626Z,1028.67
2019-03-28T09:55:45.588Z,1028.68
2019-03-28T09:56:45.592Z,1028.66
2019-03-28T09:57:45.561Z,1028.74
2019-03-28T09:58:45.567Z,1028.66
2019-03-28T09:59:45.624Z,1028.69
2019-03-28T10:00:45.541Z,1028.73
2019-03-28T10:01:45.524Z,1028.69
2019-03-28T10:02:45.530Z,1028.66
2019-03-28T10:03:45.496Z,1028.68
2019-03-28T10:04:45.511Z,1028.73
2019-03-28T10:05:45.474Z,1028.68
2019-03-28T10:06:45.465Z,1028.70
2019-03-28T10:07:45.454Z,1028.65
2019-03-28T10:08:45.464Z,1028.69
2019-03-28T10:09:45.679Z,1028.68
2019-03-28T10:10:48.514Z,1028.69
2019-03-28T10:11:45.408Z,1028.72
2019-03-28T10:12:45.396Z,1028.73
2019-03-28T10:13:45.401Z,1028.65
2019-03-28T10:14:45.398Z,1028.73
2019-03-28T10:15:45.365Z,1028.66
2019-03-28T10:16:45.393Z,1028.68
2019-03-28T10:17:45.336Z,1028.67
2019-03-28T10:18:45.438Z,1028.66
2019-03-28T10:19:45.877Z,1028.69
2019-03-28T10:20:45.342Z,1028.69
2019-03-28T10:21:45.396Z,1028.68
2019-03-28T10:22:45.329Z,1028.73
2019-03-28T10:23:45.315Z,1028.76
2019-03-28T10:24:45.293Z,1028.71
2019-03-28T10:25:45.276Z,1028.74
2019-03-28T10:26:45.241Z,1028.76
2019-03-28T10:27:45.237Z,1028.77
2019-03-28T10:28:45.213Z,1028.74
2019-03-28T10:29:45.235Z,1028.76
2019-03-28T10:30:45.232Z,1028.75
2019-03-28T10:31:45.188Z,1028.79
2019-03-28T10:32:45.176Z,1028.80
2019-03-28T10:33:45.163Z,1028.84
2019-03-28T10:34:45.159Z,1028.80
2019-03-28T10:35:45.150Z,1028.79
2019-03-28T10:36:45.132Z,1028.77
2019-03-28T10:37:45.128Z,1028.75
2019-03-28T10:38:45.104Z,1028.74
2019-03-28T10:39:45.096Z,1028.76
2019-03-28T10:40:45.092Z,1028.76
2019-03-28T10:41:45.072Z,1028.75
2019-03-28T10:42:45.058Z,1028.77
2019-03-28T10:43:45.057Z,1028.71
2019-03-28T10:44:45.053Z,1028.71
2019-03-28T10:45:45.041Z,1028.74
2019-03-28T10:46:45.112Z,1028.74
2019-03-28T10:47:45.108Z,1028.72
2019-03-28T10:48:45.000Z,1028.70
2019-03-28T10:49:45.082Z,1028.68
2019-03-28T10:50:46.057Z,1028.66
2019-03-28T10:51:44.963Z,1028.68
2019-03-28T10:52:44.946Z,1028.63
2019-03-28T10:53:44.935Z,1028.62
2019-03-28T10:54:44.949Z,1028.61
2019-03-28T10:55:44.941Z,1028.63
2019-03-28T10:56:51.748Z,1028.59
2019-03-28T10:57:44.893Z,1028.55
2019-03-28T10:58:44.879Z,1028.56
2019-03-28T10:59:44.877Z,1028.53
2019-03-28T11:00:45.011Z,1028.53
2019-03-28T11:01:50.034Z,1028.46
2019-03-28T11:02:48.510Z,1028.47
2019-03-28T11:03:44.860Z,1028.46
2019-03-28T11:04:44.886Z,1028.54
2019-03-28T11:05:44.840Z,1028.52
2019-03-28T11:06:45.249Z,1028.57
2019-03-28T11:07:44.810Z,1028.53
2019-03-28T11:08:45.089Z,1028.51
2019-03-28T11:09:44.794Z,1028.50
2019-03-28T11:10:44.758Z,1028.45
2019-03-28T11:11:45.879Z,1028.46
2019-03-28T11:12:45.867Z,1028.51
2019-03-28T11:13:45.355Z,1028.49
2019-03-28T11:14:46.335Z,1028.47
2019-03-28T11:15:44.718Z,1028.45
2019-03-28T11:16:48.065Z,1028.47
2019-03-28T11:17:44.731Z,1028.44
2019-03-28T11:18:44.708Z,1028.45
2019-03-28T11:19:44.670Z,1028.43
2019-03-28T11:20:44.688Z,1028.47
2019-03-28T11:21:44.632Z,1028.41
2019-03-28T11:22:44.690Z,1028.40
2019-03-28T11:23:44.634Z,1028.42
2019-03-28T11:24:46.350Z,1028.43
2019-03-28T11:25:44.715Z,1028.35
2019-03-28T11:26:44.872Z,1028.34
2019-03-28T11:27:44.621Z,1028.39
2019-03-28T11:28:44.586Z,1028.35
2019-03-28T11:29:44.552Z,1028.33
2019-03-28T11:30:44.570Z,1028.35
2019-03-28T11:31:46.999Z,1028.30
2019-03-28T11:32:44.952Z,1028.32
2019-03-28T11:33:44.514Z,1028.30
2019-03-28T11:34:45.364Z,1028.32
2019-03-28T11:35:45.558Z,1028.30
2019-03-28T11:36:44.565Z,1028.29
2019-03-28T11:37:44.511Z,1028.32
2019-03-28T11:38:44.446Z,1028.29
2019-03-28T11:39:44.446Z,1028.28
2019-03-28T11:40:44.414Z,1028.27
2019-03-28T11:41:44.416Z,1028.26
2019-03-28T11:42:44.397Z,1028.19
2019-03-28T11:43:44.403Z,1028.14
2019-03-28T11:44:44.381Z,1028.16
2019-03-28T11:45:44.404Z,1028.16
2019-03-28T11:46:44.375Z,1028.12
2019-03-28T11:47:44.346Z,1028.11
2019-03-28T11:48:45.826Z,1028.13
2019-03-28T11:49:44.342Z,1028.16
2019-03-28T11:50:44.323Z,1028.08
2019-03-28T11:51:44.323Z,1028.11
2019-03-28T11:52:44.307Z,1028.10
2019-03-28T11:53:44.283Z,1028.08
2019-03-28T11:54:44.251Z,1028.07
2019-03-28T11:55:44.247Z,1028.06
2019-03-28T11:56:44.246Z,1028.05
2019-03-28T11:57:44.241Z,1028.01
2019-03-28T11:58:44.250Z,1028.05
2019-03-28T11:59:44.210Z,1028.00
2019-03-28T12:00:44.198Z,1028.00
2019-03-28T12:01:44.189Z,1027.99
2019-03-28T12:02:44.187Z,1028.01
2019-03-28T12:03:44.153Z,1028.01
2019-03-28T12:04:44.167Z,1027.99
2019-03-28T12:05:44.172Z,1027.96